Time;durP1;ratioP1;P1;durP2;ratioP2;P2;SDS_P1;SDS_P2;PMS_P1;PMS_P2;Temp;Humidity;BMP_temperature;BMP_pressure;BME280_temperature;BME280_humidity;BME280_pressure;Samples;Min_cycle;Max_cycle;Signal;HPM_P1;HPM_P2
2021/10/12 00:01:22;;;;;;;6.03;3.10;;;;;;;;;;6230648;28;20216;-53
2021/10/12 00:04:43;;;;;;;5.10;1.57;;;;;;;;;;6234933;28;20225;-54
2021/10/12 00:08:04;;;;;;;5.23;1.67;;;;;;;;;;6228958;28;20570;-52
2021/10/12 00:11:24;;;;;;;5.33;1.93;;;;;;;;;;6231409;28;20752;-55
2021/10/12 00:14:45;;;;;;;6.17;2.23;;;;;;;;;;6234510;28;20559;-53
2021/10/12 00:18:07;;;;;;;4.40;2.07;;;;;;;;;;6238234;28;20556;-49
2021/10/12 00:21:28;;;;;;;7.73;1.93;;;;;;;;;;6232680;28;20205;-50
2021/10/12 00:24:48;;;;;;;6.03;3.10;;;;;;;;;;6236530;28;20237;-54
2021/10/12 00:28:09;;;;;;;4.47;1.70;;;;;;;;;;6242163;28;20838;-52
2021/10/12 00:31:29;;;;;;;7.23;2.43;;;;;;;;;;6240185;28;20200;-54
2021/10/12 00:34:51;;;;;;;7.97;2.60;;;;;;;;;;6239935;28;20221;-51
2021/10/12 00:38:11;;;;;;;5.07;2.03;;;;;;;;;;6239157;28;20197;-53
2021/10/12 00:41:32;;;;;;;5.80;2.20;;;;;;;;;;6240475;28;20197;-54
2021/10/12 00:44:52;;;;;;;8.20;2.30;;;;;;;;;;6238996;28;20621;-50
2021/10/12 00:48:13;;;;;;;5.00;1.90;;;;;;;;;;6237875;28;20209;-54
2021/10/12 00:51:35;;;;;;;6.03;1.83;;;;;;;;;;6235640;28;20204;-52
2021/10/12 00:54:56;;;;;;;6.57;2.67;;;;;;;;;;6232229;28;20533;-51
2021/10/12 00:58:16;;;;;;;7.80;2.90;;;;;;;;;;6232981;28;20280;-53
2021/10/12 01:01:37;;;;;;;6.07;2.50;;;;;;;;;;6239674;28;20294;-53
2021/10/12 01:04:58;;;;;;;3.47;1.57;;;;;;;;;;6242001;28;20228;-52
2021/10/12 01:08:21;;;;;;;6.50;2.20;;;;;;;;;;6232452;28;20233;-52
2021/10/12 01:11:41;;;;;;;5.37;3.00;;;;;;;;;;6236608;28;20196;-55
2021/10/12 01:15:04;;;;;;;3.67;2.03;;;;;;;;;;6235351;28;20586;-55
2021/10/12 01:18:24;;;;;;;3.13;2.23;;;;;;;;;;6236902;28;20661;-51
2021/10/12 01:21:46;;;;;;;4.70;2.17;;;;;;;;;;6235919;28;20189;-54
2021/10/12 01:25:07;;;;;;;5.40;1.93;;;;;;;;;;6236367;28;20232;-51
2021/10/12 01:28:29;;;;;;;5.03;2.43;;;;;;;;;;6237751;28;20443;-54
2021/10/12 01:31:50;;;;;;;3.40;1.80;;;;;;;;;;6234759;28;20755;-52
2021/10/12 01:35:10;;;;;;;4.37;2.13;;;;;;;;;;6239940;28;20228;-52
2021/10/12 01:38:33;;;;;;;3.07;1.60;;;;;;;;;;6237874;28;20236;-51
2021/10/12 01:41:53;;;;;;;2.27;1.50;;;;;;;;;;6235434;28;20193;-50
2021/10/12 01:45:14;;;;;;;1.60;1.50;;;;;;;;;;6235747;28;20586;-53
2021/10/12 01:48:35;;;;;;;4.17;1.47;;;;;;;;;;6237243;28;20224;-53
2021/10/12 01:51:56;;;;;;;2.60;1.43;;;;;;;;;;6236120;28;20204;-51
2021/10/12 01:55:21;;;;;;;4.30;2.10;;;;;;;;;;6237141;28;20324;-53
2021/10/12 01:58:43;;;;;;;5.70;1.50;;;;;;;;;;6236986;28;20606;-54
2021/10/12 02:02:03;;;;;;;3.50;1.40;;;;;;;;;;6234540;28;20510;-51
2021/10/12 02:05:24;;;;;;;3.30;2.27;;;;;;;;;;6240159;28;20229;-54
2021/10/12 02:08:44;;;;;;;4.33;1.57;;;;;;;;;;6235814;28;21792;-48
2021/10/12 02:12:06;;;;;;;2.73;1.20;;;;;;;;;;6234627;28;20246;-53
2021/10/12 02:15:27;;;;;;;6.53;1.97;;;;;;;;;;6236694;28;20325;-54
2021/10/12 02:18:47;;;;;;;4.03;1.47;;;;;;;;;;6236229;28;20232;-47
2021/10/12 02:22:07;;;;;;;3.30;1.30;;;;;;;;;;6236994;28;20475;-51
2021/10/12 02:25:28;;;;;;;1.53;1.30;;;;;;;;;;6238547;28;20610;-51
2021/10/12 02:28:50;;;;;;;2.97;2.03;;;;;;;;;;6237880;28;20232;-53
2021/10/12 02:32:10;;;;;;;2.10;1.53;;;;;;;;;;6234748;28;20197;-52
2021/10/12 02:35:31;;;;;;;1.60;1.30;;;;;;;;;;6234640;28;20228;-51
2021/10/12 02:38:52;;;;;;;4.87;2.10;;;;;;;;;;6233906;28;20491;-53
2021/10/12 02:42:12;;;;;;;4.13;1.57;;;;;;;;;;6238983;28;20586;-48
2021/10/12 02:45:34;;;;;;;5.13;1.90;;;;;;;;;;6237825;28;20228;-48
2021/10/12 02:48:54;;;;;;;2.20;1.73;;;;;;;;;;6229467;28;20692;-50
2021/10/12 02:52:15;;;;;;;1.77;1.67;;;;;;;;;;6236873;28;20197;-54
2021/10/12 02:55:36;;;;;;;2.97;1.50;;;;;;;;;;6238225;28;20532;-52
2021/10/12 02:58:56;;;;;;;2.50;1.73;;;;;;;;;;6229996;28;20712;-52
2021/10/12 03:02:18;;;;;;;2.53;1.60;;;;;;;;;;6236199;28;20582;-53
2021/10/12 03:05:43;;;;;;;2.60;1.73;;;;;;;;;;6234236;28;20221;-49
2021/10/12 03:09:03;;;;;;;1.77;1.33;;;;;;;;;;6237810;28;20228;-51
2021/10/12 03:12:24;;;;;;;1.03;0.97;;;;;;;;;;6234321;28;20209;-51
2021/10/12 03:15:44;;;;;;;1.47;1.30;;;;;;;;;;6229276;28;20224;-54
2021/10/12 03:19:08;;;;;;;1.57;0.90;;;;;;;;;;6229976;28;20600;-48
2021/10/12 03:22:29;;;;;;;1.33;0.77;;;;;;;;;;6228738;28;20287;-55
2021/10/12 03:25:49;;;;;;;2.67;0.70;;;;;;;;;;6225958;28;20223;-52
2021/10/12 03:29:10;;;;;;;2.77;1.07;;;;;;;;;;6228559;28;20225;-50
2021/10/12 03:32:30;;;;;;;4.10;1.50;;;;;;;;;;6230075;28;20565;-52
2021/10/12 03:35:55;;;;;;;1.33;0.93;;;;;;;;;;6228917;28;20229;-52
2021/10/12 03:39:16;;;;;;;2.80;1.00;;;;;;;;;;6234660;28;20225;-55
2021/10/12 03:42:36;;;;;;;1.20;0.80;;;;;;;;;;6236706;28;20202;-53
2021/10/12 03:45:57;;;;;;;1.60;0.73;;;;;;;;;;6236510;28;20618;-49
2021/10/12 03:49:17;;;;;;;0.90;0.80;;;;;;;;;;6241072;28;20614;-54
2021/10/12 03:52:39;;;;;;;3.17;1.67;;;;;;;;;;6239599;28;20287;-53
2021/10/12 03:56:00;;;;;;;1.47;0.90;;;;;;;;;;6242512;28;20212;-49
2021/10/12 03:59:21;;;;;;;1.83;1.37;;;;;;;;;;6237752;28;20228;-52
2021/10/12 04:02:41;;;;;;;1.33;1.23;;;;;;;;;;6234413;28;20224;-50
2021/10/12 04:06:01;;;;;;;1.80;1.47;;;;;;;;;;6241889;28;20228;-52
2021/10/12 04:09:23;;;;;;;1.30;1.20;;;;;;;;;;6236952;28;21708;-52
2021/10/12 04:12:44;;;;;;;1.70;1.50;;;;;;;;;;6234843;28;20210;-54
2021/10/12 04:16:05;;;;;;;1.97;1.53;;;;;;;;;;6237644;28;20236;-54
2021/10/12 04:19:25;;;;;;;2.07;1.50;;;;;;;;;;6237453;28;20256;-53
2021/10/12 04:22:46;;;;;;;1.50;1.40;;;;;;;;;;6238353;28;20602;-54
2021/10/12 04:26:11;;;;;;;1.57;1.43;;;;;;;;;;6239363;28;20647;-53
2021/10/12 04:29:31;;;;;;;1.53;1.43;;;;;;;;;;6239265;28;20229;-54
2021/10/12 04:32:52;;;;;;;1.53;1.10;;;;;;;;;;6237024;28;20638;-54
2021/10/12 04:36:13;;;;;;;1.30;1.20;;;;;;;;;;6233877;28;20209;-50
2021/10/12 04:39:34;;;;;;;4.13;1.37;;;;;;;;;;6237168;28;20248;-49
2021/10/12 04:42:56;;;;;;;1.07;0.97;;;;;;;;;;6236156;28;20209;-53
2021/10/12 04:46:18;;;;;;;1.67;1.33;;;;;;;;;;6236972;28;20657;-53
2021/10/12 04:49:38;;;;;;;2.00;1.20;;;;;;;;;;6242263;28;20225;-52
2021/10/12 04:52:58;;;;;;;1.00;0.90;;;;;;;;;;6230283;28;20202;-54
2021/10/12 04:56:19;;;;;;;3.80;1.30;;;;;;;;;;6228859;28;20193;-50
2021/10/12 04:59:41;;;;;;;1.90;1.13;;;;;;;;;;6234637;28;20794;-53
2021/10/12 05:03:01;;;;;;;3.47;1.37;;;;;;;;;;6230859;28;20205;-54
2021/10/12 05:06:22;;;;;;;2.40;1.67;;;;;;;;;;6238870;28;20197;-51
2021/10/12 05:09:42;;;;;;;3.33;2.17;;;;;;;;;;6236283;28;20239;-51
2021/10/12 05:13:03;;;;;;;2.53;2.20;;;;;;;;;;6235328;28;20201;-49
2021/10/12 05:16:27;;;;;;;2.47;2.27;;;;;;;;;;6232645;28;20255;-54
2021/10/12 05:19:48;;;;;;;3.60;2.30;;;;;;;;;;6234891;28;20326;-53
2021/10/12 05:23:09;;;;;;;4.10;2.87;;;;;;;;;;6234766;28;20201;-49
2021/10/12 05:26:29;;;;;;;3.13;2.83;;;;;;;;;;6236978;28;20205;-54
2021/10/12 05:29:50;;;;;;;2.93;2.73;;;;;;;;;;6230640;28;20236;-52
2021/10/12 05:33:13;;;;;;;5.07;3.63;;;;;;;;;;6235059;28;20197;-53
2021/10/12 05:36:34;;;;;;;3.00;2.80;;;;;;;;;;6226983;28;20236;-50
2021/10/12 05:39:55;;;;;;;4.17;3.20;;;;;;;;;;6225479;28;20236;-50
2021/10/12 05:43:15;;;;;;;4.43;3.70;;;;;;;;;;6230664;28;20751;-51
2021/10/12 05:46:35;;;;;;;6.43;4.73;;;;;;;;;;6230039;28;20205;-51
2021/10/12 05:49:57;;;;;;;3.90;3.50;;;;;;;;;;6229102;28;20233;-49
2021/10/12 05:53:29;;;;;;;7.33;4.17;;;;;;;;;;6229533;28;20237;-51
2021/10/12 05:56:56;;;;;;;5.37;3.90;;;;;;;;;;6224243;28;20204;-45
2021/10/12 06:00:16;;;;;;;8.53;4.87;;;;;;;;;;6226798;28;20241;-48
2021/10/12 06:03:37;;;;;;;4.73;4.33;;;;;;;;;;6232128;28;20236;-52
2021/10/12 06:07:01;;;;;;;16.30;14.73;;;;;;;;;;6230985;28;20198;-53
2021/10/12 06:10:22;;;;;;;5.73;4.40;;;;;;;;;;6230271;28;20232;-50
2021/10/12 06:13:44;;;;;;;7.67;4.10;;;;;;;;;;6229512;28;20220;-52
2021/10/12 06:17:04;;;;;;;8.37;3.97;;;;;;;;;;6230840;28;20463;-52
2021/10/12 06:20:25;;;;;;;3.57;3.23;;;;;;;;;;6235963;28;20697;-52
2021/10/12 06:23:47;;;;;;;5.00;4.37;;;;;;;;;;6232869;28;20248;-56
2021/10/12 06:27:07;;;;;;;8.00;7.30;;;;;;;;;;6235279;28;20224;-56
2021/10/12 06:30:28;;;;;;;5.17;2.60;;;;;;;;;;6235842;28;20224;-54
2021/10/12 06:33:49;;;;;;;4.60;2.50;;;;;;;;;;6233857;28;20225;-54
2021/10/12 06:37:10;;;;;;;10.07;8.43;;;;;;;;;;6236025;28;20212;-55
2021/10/12 06:40:32;;;;;;;5.33;4.00;;;;;;;;;;6235347;28;20506;-52
2021/10/12 06:43:52;;;;;;;4.67;2.23;;;;;;;;;;6238479;28;20338;-52
2021/10/12 06:47:13;;;;;;;5.20;2.10;;;;;;;;;;6232865;28;20193;-55
2021/10/12 06:50:34;;;;;;;5.77;2.60;;;;;;;;;;6233181;28;20237;-51
2021/10/12 06:53:54;;;;;;;3.53;2.20;;;;;;;;;;6228117;28;20228;-53
2021/10/12 06:57:16;;;;;;;5.97;1.70;;;;;;;;;;6228264;28;20320;-54
2021/10/12 07:00:37;;;;;;;2.93;1.93;;;;;;;;;;6229386;28;20220;-52
2021/10/12 07:03:57;;;;;;;2.20;1.53;;;;;;;;;;6231698;28;20605;-51
2021/10/12 07:07:17;;;;;;;4.80;1.93;;;;;;;;;;6232097;28;20228;-49
2021/10/12 07:10:38;;;;;;;3.60;1.67;;;;;;;;;;6225429;28;20728;-55
2021/10/12 07:14:00;;;;;;;9.07;2.47;;;;;;;;;;6234508;28;20232;-50
2021/10/12 07:17:20;;;;;;;2.27;1.27;;;;;;;;;;6232935;28;20235;-53
2021/10/12 07:20:41;;;;;;;4.60;1.57;;;;;;;;;;6228681;28;20228;-53
2021/10/12 07:24:02;;;;;;;4.83;2.20;;;;;;;;;;6231884;28;21112;-51
2021/10/12 07:27:22;;;;;;;4.37;1.73;;;;;;;;;;6231394;28;20201;-50
2021/10/12 07:30:44;;;;;;;4.27;2.10;;;;;;;;;;6231957;28;20232;-49
2021/10/12 07:34:06;;;;;;;6.43;2.40;;;;;;;;;;6231752;28;20554;-53
2021/10/12 07:37:26;;;;;;;9.90;3.57;;;;;;;;;;6234108;28;20237;-49
2021/10/12 07:40:47;;;;;;;4.20;2.10;;;;;;;;;;6225210;28;20255;-49
2021/10/12 07:44:08;;;;;;;4.77;1.97;;;;;;;;;;6227730;28;20228;-53
2021/10/12 07:47:29;;;;;;;4.53;2.70;;;;;;;;;;6235133;28;20823;-52
2021/10/12 07:50:51;;;;;;;4.10;1.47;;;;;;;;;;6230236;28;20258;-52
2021/10/12 07:54:17;;;;;;;11.37;5.23;;;;;;;;;;6231845;28;20888;-55
2021/10/12 07:57:38;;;;;;;4.60;3.23;;;;;;;;;;6234449;28;20217;-51
2021/10/12 08:00:58;;;;;;;6.40;5.27;;;;;;;;;;6227517;28;20228;-51
2021/10/12 08:04:20;;;;;;;3.37;1.10;;;;;;;;;;6236517;28;20742;-50
2021/10/12 08:07:40;;;;;;;6.33;1.57;;;;;;;;;;6234408;28;20276;-54
2021/10/12 08:11:03;;;;;;;4.93;1.70;;;;;;;;;;6232096;28;20237;-52
2021/10/12 08:14:25;;;;;;;4.87;1.30;;;;;;;;;;6229186;28;20527;-49
2021/10/12 08:17:45;;;;;;;4.17;1.97;;;;;;;;;;6229697;28;20252;-52
2021/10/12 08:21:08;;;;;;;3.70;1.60;;;;;;;;;;6234747;28;20212;-53
2021/10/12 08:24:29;;;;;;;8.33;3.90;;;;;;;;;;6223273;28;20228;-55
2021/10/12 08:27:49;;;;;;;4.13;2.13;;;;;;;;;;6232129;28;20225;-55
2021/10/12 08:31:10;;;;;;;3.87;1.70;;;;;;;;;;6235458;28;20221;-51
2021/10/12 08:34:30;;;;;;;8.00;2.40;;;;;;;;;;6236102;28;20228;-53
2021/10/12 08:37:52;;;;;;;3.37;1.87;;;;;;;;;;6233731;28;20222;-54
2021/10/12 08:41:15;;;;;;;5.70;1.80;;;;;;;;;;6231186;28;20629;-55
2021/10/12 08:44:47;;;;;;;3.17;1.40;;;;;;;;;;6238302;28;20254;-54
2021/10/12 08:48:07;;;;;;;4.77;1.80;;;;;;;;;;6237638;28;20780;-54
2021/10/12 08:51:28;;;;;;;6.10;1.47;;;;;;;;;;6228062;28;20196;-53
2021/10/12 08:54:50;;;;;;;3.63;1.70;;;;;;;;;;6233676;28;20228;-53
2021/10/12 08:58:12;;;;;;;3.77;1.30;;;;;;;;;;6239592;28;20236;-56
2021/10/12 09:01:52;;;;;;;5.50;1.67;;;;;;;;;;6234417;28;20252;-50
2021/10/12 09:05:15;;;;;;;4.60;1.40;;;;;;;;;;6238589;28;20236;-55
2021/10/12 09:08:39;;;;;;;4.17;1.67;;;;;;;;;;6236294;28;20630;-55
2021/10/12 09:12:01;;;;;;;4.23;1.10;;;;;;;;;;6236776;28;20523;-55
2021/10/12 09:15:21;;;;;;;5.47;1.23;;;;;;;;;;6237785;28;20225;-54
2021/10/12 09:18:52;;;;;;;3.87;1.47;;;;;;;;;;6205957;28;20427;-55
2021/10/12 09:22:12;;;;;;;4.67;1.43;;;;;;;;;;6228549;28;20477;-51
2021/10/12 09:25:34;;;;;;;4.97;1.57;;;;;;;;;;6227909;28;20228;-53
2021/10/12 09:29:00;;;;;;;2.27;1.00;;;;;;;;;;6236741;28;20358;-54
2021/10/12 09:32:22;;;;;;;3.60;1.60;;;;;;;;;;6237909;28;20919;-53
2021/10/12 09:35:43;;;;;;;6.27;1.70;;;;;;;;;;6238564;28;20224;-53
2021/10/12 09:39:04;;;;;;;4.33;2.67;;;;;;;;;;6236385;28;20256;-54
2021/10/12 09:42:24;;;;;;;5.20;2.00;;;;;;;;;;6235445;28;20201;-54
2021/10/12 09:45:47;;;;;;;2.00;1.25;;;;;;;;;;6237061;28;20237;-53
2021/10/12 09:49:11;;;;;;;3.45;0.80;;;;;;;;;;6234487;28;20236;-52
2021/10/12 09:52:35;;;;;;;5.53;1.30;;;;;;;;;;6235054;28;20292;-55
2021/10/12 09:55:56;;;;;;;3.45;1.73;;;;;;;;;;6238130;28;20232;-52
2021/10/12 09:59:18;;;;;;;4.45;1.42;;;;;;;;;;6235538;28;20229;-50
2021/10/12 10:02:40;;;;;;;4.68;1.30;;;;;;;;;;6216495;28;20666;-56
2021/10/12 10:06:03;;;;;;;2.35;1.58;;;;;;;;;;6236410;28;20228;-50
2021/10/12 10:09:24;;;;;;;2.78;1.35;;;;;;;;;;6230671;28;20665;-54
2021/10/12 10:12:45;;;;;;;2.70;1.58;;;;;;;;;;6229063;28;20205;-54
2021/10/12 10:16:08;;;;;;;3.33;1.05;;;;;;;;;;6234766;28;20233;-56
2021/10/12 10:19:32;;;;;;;4.47;1.05;;;;;;;;;;6225699;28;20233;-56
2021/10/12 10:22:56;;;;;;;2.95;1.30;;;;;;;;;;6232052;28;20200;-54
2021/10/12 10:26:23;;;;;;;2.28;1.17;;;;;;;;;;6220515;28;20228;-56
2021/10/12 10:29:43;;;;;;;2.35;1.40;;;;;;;;;;6233773;28;20676;-53
2021/10/12 10:33:05;;;;;;;2.85;1.25;;;;;;;;;;6233686;28;20232;-52
2021/10/12 10:36:27;;;;;;;3.58;1.13;;;;;;;;;;6231279;28;20201;-53
2021/10/12 10:39:48;;;;;;;3.45;1.20;;;;;;;;;;6229247;28;20232;-54
2021/10/12 10:43:09;;;;;;;3.45;1.00;;;;;;;;;;6237468;28;21028;-54
2021/10/12 10:46:42;;;;;;;4.65;2.22;;;;;;;;;;6237611;28;20200;-51
2021/10/12 10:50:13;;;;;;;3.63;1.58;;;;;;;;;;6238854;28;20220;-51
2021/10/12 10:53:39;;;;;;;1.63;1.10;;;;;;;;;;6229060;28;20254;-52
2021/10/12 10:57:09;;;;;;;4.85;1.38;;;;;;;;;;6231937;28;20196;-50
2021/10/12 11:00:31;;;;;;;3.05;1.33;;;;;;;;;;6228686;28;20656;-51
2021/10/12 11:03:51;;;;;;;2.45;1.40;;;;;;;;;;6231903;28;20244;-52
2021/10/12 11:07:18;;;;;;;2.15;0.70;;;;;;;;;;6227997;28;20202;-53
2021/10/12 11:10:39;;;;;;;4.03;1.65;;;;;;;;;;6229776;28;20514;-52
2021/10/12 11:14:01;;;;;;;3.28;1.75;;;;;;;;;;6230915;28;20225;-50
2021/10/12 11:17:21;;;;;;;3.05;2.08;;;;;;;;;;6223702;28;20232;-53
2021/10/12 11:20:43;;;;;;;5.88;1.75;;;;;;;;;;6228026;28;20236;-54
2021/10/12 11:24:04;;;;;;;2.50;1.20;;;;;;;;;;6238586;28;20326;-52
2021/10/12 11:27:26;;;;;;;2.70;1.42;;;;;;;;;;6225633;28;21194;-54
2021/10/12 11:30:47;;;;;;;2.05;1.08;;;;;;;;;;6223327;28;20225;-53
2021/10/12 11:34:07;;;;;;;1.77;0.90;;;;;;;;;;6232969;28;20251;-54
2021/10/12 11:37:28;;;;;;;1.02;0.70;;;;;;;;;;6234735;28;20791;-51
2021/10/12 11:40:48;;;;;;;7.45;5.70;;;;;;;;;;6228078;28;20236;-51
2021/10/12 11:44:16;;;;;;;7.43;5.55;;;;;;;;;;6228650;28;20228;-54
2021/10/12 11:47:36;;;;;;;6.03;3.03;;;;;;;;;;6227664;28;20212;-51
2021/10/12 11:50:57;;;;;;;1.40;1.00;;;;;;;;;;6229195;28;20226;-51
2021/10/12 11:54:21;;;;;;;5.15;1.48;;;;;;;;;;6233102;28;20228;-48
2021/10/12 11:57:44;;;;;;;3.45;0.90;;;;;;;;;;6226929;28;20232;-52
2021/10/12 12:01:07;;;;;;;3.33;1.52;;;;;;;;;;6226635;28;20515;-53
2021/10/12 12:04:28;;;;;;;2.60;0.90;;;;;;;;;;6229178;28;20225;-54
2021/10/12 12:07:49;;;;;;;4.10;1.80;;;;;;;;;;6230152;28;20493;-55
2021/10/12 12:11:10;;;;;;;2.75;1.27;;;;;;;;;;6240830;28;20209;-55
2021/10/12 12:14:31;;;;;;;2.58;1.20;;;;;;;;;;6236026;28;20236;-50
2021/10/12 12:18:11;;;;;;;3.08;2.42;;;;;;;;;;6233923;28;20220;-54
2021/10/12 12:21:32;;;;;;;4.43;1.50;;;;;;;;;;6236465;28;20696;-49
2021/10/12 12:24:57;;;;;;;2.13;1.38;;;;;;;;;;6233985;28;20636;-54
2021/10/12 12:28:22;;;;;;;4.03;1.50;;;;;;;;;;6234085;28;20189;-54
2021/10/12 12:31:47;;;;;;;4.03;1.30;;;;;;;;;;6235837;28;20209;-53
2021/10/12 12:35:09;;;;;;;3.97;0.90;;;;;;;;;;6231051;28;20256;-54
2021/10/12 12:38:32;;;;;;;7.15;1.90;;;;;;;;;;6229629;28;20225;-55
2021/10/12 12:41:52;;;;;;;3.15;1.15;;;;;;;;;;6234924;28;20218;-53
2021/10/12 12:45:14;;;;;;;2.03;0.90;;;;;;;;;;6228801;28;20645;-57
2021/10/12 12:48:35;;;;;;;1.83;1.33;;;;;;;;;;6228574;28;20224;-56
2021/10/12 12:51:57;;;;;;;4.90;1.73;;;;;;;;;;6238781;28;20185;-52
2021/10/12 12:55:30;;;;;;;2.55;1.55;;;;;;;;;;6237421;28;20335;-56
2021/10/12 12:58:51;;;;;;;4.43;1.92;;;;;;;;;;6228749;28;20232;-56
2021/10/12 13:02:18;;;;;;;3.53;1.27;;;;;;;;;;6230847;28;20837;-55
2021/10/12 13:05:39;;;;;;;2.72;1.27;;;;;;;;;;6229314;28;20838;-54
2021/10/12 13:09:03;;;;;;;1.50;1.10;;;;;;;;;;6236612;28;20307;-50
2021/10/12 13:12:25;;;;;;;2.35;1.27;;;;;;;;;;6232597;28;20217;-53
2021/10/12 13:15:45;;;;;;;2.88;1.00;;;;;;;;;;6229125;28;20929;-51
2021/10/12 13:19:06;;;;;;;3.05;2.67;;;;;;;;;;6225639;28;20306;-53
2021/10/12 13:22:26;;;;;;;3.83;2.40;;;;;;;;;;6234841;28;20779;-52
2021/10/12 13:25:48;;;;;;;3.47;1.00;;;;;;;;;;6232059;28;20331;-51
2021/10/12 13:29:10;;;;;;;3.30;1.25;;;;;;;;;;6231852;28;20617;-52
2021/10/12 13:32:30;;;;;;;3.50;2.03;;;;;;;;;;6234588;28;20911;-52
2021/10/12 13:35:51;;;;;;;2.97;1.80;;;;;;;;;;6230989;28;20233;-54
2021/10/12 13:39:11;;;;;;;5.43;2.00;;;;;;;;;;6228563;28;20324;-53
2021/10/12 13:42:33;;;;;;;5.28;1.67;;;;;;;;;;6230262;28;20644;-55
2021/10/12 13:45:54;;;;;;;3.70;1.08;;;;;;;;;;6225354;28;20266;-57
2021/10/12 13:49:14;;;;;;;4.78;1.40;;;;;;;;;;6233272;28;20197;-54
2021/10/12 13:52:35;;;;;;;3.00;1.42;;;;;;;;;;6231940;28;20224;-53
2021/10/12 13:55:56;;;;;;;1.90;1.50;;;;;;;;;;6230015;28;20229;-51
2021/10/12 13:59:19;;;;;;;2.53;1.27;;;;;;;;;;6232889;28;20196;-51
2021/10/12 14:02:40;;;;;;;2.58;1.13;;;;;;;;;;6226834;28;20225;-54
2021/10/12 14:06:00;;;;;;;1.45;0.73;;;;;;;;;;6231386;28;20236;-53
2021/10/12 14:09:20;;;;;;;2.53;1.00;;;;;;;;;;6230300;28;20228;-51
2021/10/12 14:12:41;;;;;;;1.50;1.10;;;;;;;;;;6234839;28;20676;-52
2021/10/12 14:16:03;;;;;;;0.82;0.82;;;;;;;;;;6226646;28;20228;-53
2021/10/12 14:19:24;;;;;;;0.68;0.60;;;;;;;;;;6227620;28;20578;-48
2021/10/12 14:22:46;;;;;;;1.45;0.98;;;;;;;;;;6231548;28;20244;-48
2021/10/12 14:26:06;;;;;;;3.28;1.70;;;;;;;;;;6230351;28;20220;-54
2021/10/12 14:29:27;;;;;;;2.17;0.82;;;;;;;;;;6238549;28;20197;-51
2021/10/12 14:32:49;;;;;;;4.78;1.38;;;;;;;;;;6233043;28;20281;-52
2021/10/12 14:36:11;;;;;;;3.20;1.83;;;;;;;;;;6225980;28;20499;-54
2021/10/12 14:39:31;;;;;;;0.47;0.43;;;;;;;;;;6236436;28;20197;-54
2021/10/12 14:42:53;;;;;;;4.72;1.02;;;;;;;;;;6233801;28;20198;-55
2021/10/12 14:46:14;;;;;;;1.70;0.85;;;;;;;;;;6229216;28;20240;-55
2021/10/12 14:49:35;;;;;;;1.90;1.10;;;;;;;;;;6230698;28;20209;-54
2021/10/12 14:52:56;;;;;;;1.17;1.00;;;;;;;;;;6233214;28;20216;-49
2021/10/12 14:56:16;;;;;;;2.25;0.85;;;;;;;;;;6230186;28;20256;-55
2021/10/12 14:59:37;;;;;;;3.13;1.13;;;;;;;;;;6234291;28;20248;-55
2021/10/12 15:03:04;;;;;;;1.70;1.07;;;;;;;;;;6229660;28;20783;-52
2021/10/12 15:06:26;;;;;;;1.73;0.97;;;;;;;;;;6230149;28;20228;-53
2021/10/12 15:09:47;;;;;;;1.70;1.00;;;;;;;;;;6231822;28;20233;-50
2021/10/12 15:13:07;;;;;;;2.17;1.40;;;;;;;;;;6226215;28;20240;-51
2021/10/12 15:16:28;;;;;;;1.50;1.00;;;;;;;;;;6223237;28;20228;-55
2021/10/12 15:19:48;;;;;;;1.00;0.70;;;;;;;;;;6232019;28;20228;-55
2021/10/12 15:23:10;;;;;;;2.17;0.80;;;;;;;;;;6235745;28;20213;-54
2021/10/12 15:26:32;;;;;;;2.70;2.20;;;;;;;;;;6233465;28;20234;-52
2021/10/12 15:29:53;;;;;;;2.03;0.97;;;;;;;;;;6226645;28;20235;-52
2021/10/12 15:33:13;;;;;;;0.90;0.70;;;;;;;;;;6225280;28;20182;-53
2021/10/12 15:36:34;;;;;;;1.50;1.10;;;;;;;;;;6230173;28;20292;-52
2021/10/12 15:39:56;;;;;;;3.30;2.57;;;;;;;;;;6231746;28;20332;-55
2021/10/12 15:43:16;;;;;;;1.07;0.67;;;;;;;;;;6239646;28;20578;-55
2021/10/12 15:46:37;;;;;;;3.00;1.10;;;;;;;;;;6236691;28;20236;-53
2021/10/12 15:49:57;;;;;;;3.40;1.50;;;;;;;;;;6239341;28;20236;-53
2021/10/12 15:53:18;;;;;;;1.83;1.10;;;;;;;;;;6239034;28;20399;-55
2021/10/12 15:56:40;;;;;;;1.53;1.43;;;;;;;;;;6235941;28;20320;-55
2021/10/12 16:00:00;;;;;;;2.17;1.17;;;;;;;;;;6231970;28;20224;-55
2021/10/12 16:03:20;;;;;;;2.57;1.93;;;;;;;;;;6232890;28;20201;-53
2021/10/12 16:06:42;;;;;;;2.83;1.80;;;;;;;;;;6229995;28;20605;-54
2021/10/12 16:10:03;;;;;;;2.27;1.10;;;;;;;;;;6232789;28;20228;-52
2021/10/12 16:13:25;;;;;;;2.03;0.97;;;;;;;;;;6236579;28;20220;-51
2021/10/12 16:24:03;;;;;;;3.73;2.60;;;;;;;;;;6214092;28;20346;-54
2021/10/12 16:27:24;;;;;;;2.60;1.00;;;;;;;;;;6230262;28;20237;-55
2021/10/12 16:30:46;;;;;;;3.00;2.67;;;;;;;;;;6230218;28;20316;-54
2021/10/12 16:34:15;;;;;;;3.97;3.53;;;;;;;;;;6234733;28;20201;-54
2021/10/12 16:37:35;;;;;;;3.97;2.67;;;;;;;;;;6243094;28;20295;-55
2021/10/12 16:40:55;;;;;;;3.10;2.17;;;;;;;;;;6242033;28;20240;-53
2021/10/12 16:44:16;;;;;;;4.13;3.27;;;;;;;;;;6243428;28;20283;-52
2021/10/12 16:47:38;;;;;;;4.77;2.80;;;;;;;;;;6234069;28;20220;-55
2021/10/12 16:50:58;;;;;;;2.93;2.10;;;;;;;;;;6235817;28;20228;-53
2021/10/12 16:54:20;;;;;;;2.67;2.40;;;;;;;;;;6234628;28;20202;-57
2021/10/12 16:57:43;;;;;;;10.97;9.80;;;;;;;;;;6210028;28;20233;-55
2021/10/12 17:01:03;;;;;;;42.20;37.97;;;;;;;;;;6232910;28;20258;-53
2021/10/12 17:04:26;;;;;;;32.87;29.60;;;;;;;;;;6240754;28;20578;-52
2021/10/12 17:07:46;;;;;;;95.23;85.30;;;;;;;;;;6227488;28;20504;-52
2021/10/12 17:11:06;;;;;;;32.50;29.10;;;;;;;;;;6235019;28;20221;-52
2021/10/12 17:14:27;;;;;;;43.23;39.10;;;;;;;;;;6237849;28;20239;-55
2021/10/12 17:17:47;;;;;;;6.93;5.93;;;;;;;;;;6234887;28;20244;-55
2021/10/12 17:21:09;;;;;;;4.57;4.17;;;;;;;;;;6234758;28;20232;-53
2021/10/12 17:24:32;;;;;;;4.33;3.93;;;;;;;;;;6236295;28;20193;-55
2021/10/12 17:27:52;;;;;;;5.10;4.60;;;;;;;;;;6234127;28;20212;-50
2021/10/12 17:31:14;;;;;;;5.00;3.30;;;;;;;;;;6231668;28;20224;-51
2021/10/12 17:34:35;;;;;;;5.60;3.93;;;;;;;;;;6239842;28;20205;-54
2021/10/12 17:37:57;;;;;;;4.17;3.57;;;;;;;;;;6232964;28;20446;-55
2021/10/12 17:41:18;;;;;;;4.97;3.53;;;;;;;;;;6235209;28;20260;-55
2021/10/12 17:44:38;;;;;;;3.80;3.50;;;;;;;;;;6232369;28;20193;-52
2021/10/12 17:47:59;;;;;;;3.93;3.47;;;;;;;;;;6224345;28;20204;-53
2021/10/12 17:51:21;;;;;;;3.93;3.53;;;;;;;;;;6219860;28;20314;-50
2021/10/12 17:54:44;;;;;;;3.77;3.10;;;;;;;;;;6221183;28;20550;-54
2021/10/12 17:58:05;;;;;;;2.90;2.70;;;;;;;;;;6224851;28;20238;-52
2021/10/12 18:01:27;;;;;;;3.83;3.20;;;;;;;;;;6225486;28;20232;-52
2021/10/12 18:04:47;;;;;;;4.33;3.23;;;;;;;;;;6234233;28;20771;-53
2021/10/12 18:08:09;;;;;;;5.27;3.77;;;;;;;;;;6236434;28;20201;-56
2021/10/12 18:11:32;;;;;;;3.33;2.67;;;;;;;;;;6231790;28;20232;-55
2021/10/12 18:14:52;;;;;;;2.97;2.67;;;;;;;;;;6234709;28;20236;-55
2021/10/12 18:18:13;;;;;;;5.43;4.93;;;;;;;;;;6234877;28;20232;-53
2021/10/12 18:21:35;;;;;;;9.53;3.77;;;;;;;;;;6238850;28;20237;-54
2021/10/12 18:24:56;;;;;;;5.37;4.57;;;;;;;;;;6226918;28;20236;-55
2021/10/12 18:28:17;;;;;;;3.30;2.97;;;;;;;;;;6230550;28;20570;-54
2021/10/12 18:31:38;;;;;;;5.60;3.53;;;;;;;;;;6231327;28;20220;-54
2021/10/12 18:34:59;;;;;;;5.80;4.93;;;;;;;;;;6229740;28;20221;-51
2021/10/12 18:38:20;;;;;;;4.30;3.67;;;;;;;;;;6241657;28;20201;-53
2021/10/12 18:41:41;;;;;;;4.50;3.40;;;;;;;;;;6232336;28;20252;-54
2021/10/12 18:45:04;;;;;;;3.90;3.40;;;;;;;;;;6226548;28;20798;-55
2021/10/12 18:48:24;;;;;;;3.40;3.10;;;;;;;;;;6232438;28;20233;-51
2021/10/12 18:51:45;;;;;;;5.57;3.60;;;;;;;;;;6236366;28;20228;-56
2021/10/12 18:55:07;;;;;;;5.13;4.63;;;;;;;;;;6240336;28;20232;-53
2021/10/12 18:58:27;;;;;;;4.90;3.33;;;;;;;;;;6231594;28;20209;-53
2021/10/12 19:01:49;;;;;;;4.33;3.73;;;;;;;;;;6228381;28;21849;-55
2021/10/12 19:05:10;;;;;;;4.00;3.60;;;;;;;;;;6235816;28;20553;-53
2021/10/12 19:08:31;;;;;;;5.03;4.23;;;;;;;;;;6229910;28;20200;-52
2021/10/12 19:11:52;;;;;;;4.03;3.30;;;;;;;;;;6232807;28;20232;-51
2021/10/12 19:15:12;;;;;;;6.23;5.50;;;;;;;;;;6230319;28;20241;-53
2021/10/12 19:18:35;;;;;;;4.57;4.10;;;;;;;;;;6232279;28;20260;-55
2021/10/12 19:21:56;;;;;;;6.23;4.40;;;;;;;;;;6238469;28;20236;-55
2021/10/12 19:25:17;;;;;;;4.30;3.90;;;;;;;;;;6234208;28;20688;-50
2021/10/12 19:28:37;;;;;;;7.53;5.17;;;;;;;;;;6229280;28;20197;-52
2021/10/12 19:31:58;;;;;;;5.40;4.90;;;;;;;;;;6227947;28;20224;-53
2021/10/12 19:35:20;;;;;;;5.53;4.50;;;;;;;;;;6229528;28;20224;-55
2021/10/12 19:38:40;;;;;;;6.33;5.73;;;;;;;;;;6233508;28;20208;-55
2021/10/12 19:42:01;;;;;;;5.93;4.60;;;;;;;;;;6219127;28;20233;-50
2021/10/12 19:45:21;;;;;;;6.20;5.00;;;;;;;;;;6221668;28;20228;-53
2021/10/12 19:48:42;;;;;;;7.20;5.90;;;;;;;;;;6229544;28;20588;-55
2021/10/12 19:52:05;;;;;;;5.60;4.97;;;;;;;;;;6225663;28;20228;-54
2021/10/12 19:55:27;;;;;;;7.27;5.47;;;;;;;;;;6234330;28;20597;-50
2021/10/12 19:58:47;;;;;;;6.43;4.90;;;;;;;;;;6233646;28;20201;-52
2021/10/12 20:05:46;;;;;;;6.63;6.03;;;;;;;;;;6228474;28;20239;-55
2021/10/12 20:09:08;;;;;;;6.13;5.43;;;;;;;;;;6228725;28;20197;-53
2021/10/12 20:12:29;;;;;;;6.57;5.77;;;;;;;;;;6225175;28;20213;-51
2021/10/12 20:15:49;;;;;;;5.97;5.37;;;;;;;;;;6224889;28;20224;-55
2021/10/12 20:22:48;;;;;;;6.17;5.67;;;;;;;;;;6218462;28;20252;-54